createdAt,value
2019-04-06T00:00:51.339Z,0.00
2019-04-06T00:01:51.334Z,0.00
2019-04-06T00:02:51.311Z,0.00
2019-04-06T00:03:52.131Z,0.00
2019-04-06T00:04:51.291Z,0.00
2019-04-06T00:05:51.284Z,0.00
2019-04-06T00:06:51.263Z,0.00
2019-04-06T00:07:51.250Z,0.00
2019-04-06T00:08:51.241Z,0.00
2019-04-06T00:09:51.229Z,0.00
2019-04-06T00:10:51.221Z,0.00
2019-04-06T00:11:51.223Z,0.00
2019-04-06T00:12:51.208Z,0.00
2019-04-06T00:13:51.187Z,0.00
2019-04-06T00:14:51.176Z,0.00
2019-04-06T00:15:51.164Z,0.00
2019-04-06T00:16:51.152Z,0.00
2019-04-06T00:17:51.152Z,0.00
2019-04-06T00:18:51.131Z,0.00
2019-04-06T00:19:51.119Z,0.00
2019-04-06T00:20:51.109Z,0.00
2019-04-06T00:21:51.100Z,0.00
2019-04-06T00:22:51.088Z,0.00
2019-04-06T00:23:51.085Z,0.00
2019-04-06T00:24:51.073Z,0.00
2019-04-06T00:25:51.078Z,0.00
2019-04-06T00:26:51.042Z,0.00
2019-04-06T00:27:51.032Z,0.00
2019-04-06T00:28:51.022Z,0.00
2019-04-06T00:29:51.020Z,0.00
2019-04-06T00:30:51.001Z,0.00
2019-04-06T00:31:50.992Z,0.00
2019-04-06T00:32:50.987Z,0.00
2019-04-06T00:33:50.969Z,0.00
2019-04-06T00:34:50.958Z,0.00
2019-04-06T00:35:50.976Z,0.00
2019-04-06T00:36:50.938Z,0.00
2019-04-06T00:37:50.926Z,0.00
2019-04-06T00:38:50.915Z,0.00
2019-04-06T00:39:50.904Z,0.00
2019-04-06T00:40:50.906Z,0.00
2019-04-06T00:41:50.912Z,0.00
2019-04-06T00:42:50.873Z,0.00
2019-04-06T00:43:50.865Z,0.00
2019-04-06T00:44:50.853Z,0.00
2019-04-06T00:45:50.841Z,0.00
2019-04-06T00:46:50.830Z,0.00
2019-04-06T00:47:50.843Z,0.00
2019-04-06T00:48:50.809Z,0.00
2019-04-06T00:49:50.799Z,0.00
2019-04-06T00:50:50.788Z,0.00
2019-04-06T00:51:50.846Z,0.00
2019-04-06T00:52:50.765Z,0.00
2019-04-06T00:53:50.765Z,0.00
2019-04-06T00:54:50.789Z,0.00
2019-04-06T00:55:55.917Z,0.00
2019-04-06T00:56:51.739Z,0.00
2019-04-06T00:57:50.711Z,0.00
2019-04-06T00:58:50.736Z,0.00
2019-04-06T00:59:50.712Z,0.00
2019-04-06T01:00:50.679Z,0.00
2019-04-06T01:01:50.671Z,0.00
2019-04-06T01:02:50.659Z,0.00
2019-04-06T01:03:50.646Z,0.00
2019-04-06T01:04:50.638Z,0.00
2019-04-06T01:05:50.634Z,0.00
2019-04-06T01:06:50.614Z,0.00
2019-04-06T01:07:50.604Z,0.00
2019-04-06T01:08:50.599Z,0.00
2019-04-06T01:09:50.599Z,0.00
2019-04-06T01:10:50.572Z,0.00
2019-04-06T01:11:50.578Z,0.00
2019-04-06T01:12:50.549Z,0.00
2019-04-06T01:13:50.543Z,0.00
2019-04-06T01:14:50.527Z,0.00
2019-04-06T01:15:50.521Z,0.00
2019-04-06T01:16:50.508Z,0.00
2019-04-06T01:17:50.505Z,0.00
2019-04-06T01:18:50.486Z,0.00
2019-04-06T01:19:50.473Z,0.00
2019-04-06T01:20:50.462Z,0.00
2019-04-06T01:21:50.462Z,0.00
2019-04-06T01:22:50.488Z,0.00
2019-04-06T01:23:50.439Z,0.00
2019-04-06T01:24:50.417Z,0.00
2019-04-06T01:25:50.415Z,0.00
2019-04-06T01:26:50.397Z,0.00
2019-04-06T01:27:50.385Z,0.00
2019-04-06T01:28:50.377Z,0.00
2019-04-06T01:29:50.395Z,0.00
2019-04-06T01:30:50.353Z,0.00
2019-04-06T01:31:50.340Z,0.00
2019-04-06T01:32:50.330Z,0.00
2019-04-06T01:33:50.320Z,0.00
2019-04-06T01:34:50.308Z,0.00
2019-04-06T01:35:50.309Z,0.00
2019-04-06T01:36:50.287Z,0.00
2019-04-06T01:37:50.277Z,0.00
2019-04-06T01:38:50.265Z,0.00
2019-04-06T01:39:50.252Z,0.00
2019-04-06T01:40:50.241Z,0.00
2019-04-06T01:41:50.243Z,0.00
2019-04-06T01:42:50.277Z,0.00
2019-04-06T01:43:50.209Z,0.00
2019-04-06T01:44:50.198Z,0.00
2019-04-06T01:45:50.188Z,0.00
2019-04-06T01:46:50.177Z,0.00
2019-04-06T01:47:50.183Z,0.00
2019-04-06T01:48:50.155Z,0.00
2019-04-06T01:49:50.142Z,0.00
2019-04-06T01:50:50.135Z,0.00
2019-04-06T01:51:50.121Z,0.00
2019-04-06T01:52:50.114Z,0.00
2019-04-06T01:53:50.113Z,0.00
2019-04-06T01:54:50.088Z,0.00
2019-04-06T01:55:50.076Z,0.00
2019-04-06T01:56:50.071Z,0.00
2019-04-06T01:57:50.055Z,0.00
2019-04-06T01:58:50.045Z,0.00
2019-04-06T01:59:50.044Z,0.00
2019-04-06T02:00:50.024Z,0.00
2019-04-06T02:01:50.013Z,0.00
2019-04-06T02:02:50.001Z,0.00
2019-04-06T02:03:49.998Z,0.00
2019-04-06T02:04:49.979Z,0.00
2019-04-06T02:05:49.997Z,0.00
2019-04-06T02:06:49.958Z,0.00
2019-04-06T02:07:49.947Z,0.00
2019-04-06T02:08:49.936Z,0.00
2019-04-06T02:09:49.926Z,0.00
2019-04-06T02:10:49.919Z,0.00
2019-04-06T02:11:49.909Z,0.00
2019-04-06T02:12:49.922Z,0.00
2019-04-06T02:13:49.878Z,0.00
2019-04-06T02:14:49.868Z,0.00
2019-04-06T02:15:49.907Z,0.00
2019-04-06T02:16:49.846Z,0.00
2019-04-06T02:17:49.846Z,0.00
2019-04-06T02:18:49.824Z,0.00
2019-04-06T02:19:49.869Z,0.00
2019-04-06T02:20:49.803Z,0.00
2019-04-06T02:21:49.793Z,0.00
2019-04-06T02:22:49.782Z,0.00
2019-04-06T02:23:50.004Z,0.00
2019-04-06T02:24:49.792Z,0.00
2019-04-06T02:25:49.751Z,0.00
2019-04-06T02:26:49.739Z,0.00
2019-04-06T02:27:49.728Z,0.00
2019-04-06T02:28:49.718Z,0.00
2019-04-06T02:29:49.731Z,0.00
2019-04-06T02:30:49.696Z,0.00
2019-04-06T02:31:49.709Z,0.00
2019-04-06T02:32:49.676Z,0.00
2019-04-06T02:33:49.664Z,0.00
2019-04-06T02:34:49.745Z,0.00
2019-04-06T02:35:49.743Z,0.00
2019-04-06T02:36:49.635Z,0.00
2019-04-06T02:37:49.900Z,0.00
2019-04-06T02:38:49.617Z,0.00
2019-04-06T02:39:49.608Z,0.00
2019-04-06T02:40:49.596Z,0.00
2019-04-06T02:41:49.602Z,0.00
2019-04-06T02:42:49.569Z,0.00
2019-04-06T02:43:49.559Z,0.00
2019-04-06T02:44:49.547Z,0.00
2019-04-06T02:45:49.536Z,0.00
2019-04-06T02:46:49.691Z,0.00
2019-04-06T02:47:49.525Z,0.00
2019-04-06T02:48:49.504Z,0.00
2019-04-06T02:49:49.496Z,0.00
2019-04-06T02:50:49.636Z,0.00
2019-04-06T02:51:49.473Z,0.00
2019-04-06T02:52:49.467Z,0.00
2019-04-06T02:53:49.464Z,0.00
2019-04-06T02:54:49.441Z,0.00
2019-04-06T02:55:49.429Z,0.00
2019-04-06T02:56:49.419Z,0.00
2019-04-06T02:57:49.475Z,0.00
2019-04-06T02:58:49.397Z,0.00
2019-04-06T02:59:49.407Z,0.00
2019-04-06T03:00:49.378Z,0.00
2019-04-06T03:01:49.364Z,0.00
2019-04-06T03:02:49.355Z,0.00
2019-04-06T03:03:49.345Z,0.00
2019-04-06T03:04:49.336Z,0.00
2019-04-06T03:05:49.550Z,0.00
2019-04-06T03:06:49.361Z,0.00
2019-04-06T03:07:49.300Z,0.00
2019-04-06T03:08:49.290Z,0.00
2019-04-06T03:09:49.281Z,0.00
2019-04-06T03:10:49.269Z,0.00
2019-04-06T03:11:49.266Z,0.00
2019-04-06T03:12:49.246Z,0.00
2019-04-06T03:13:49.234Z,0.00
2019-04-06T03:14:49.228Z,0.00
2019-04-06T03:15:49.220Z,0.00
2019-04-06T03:16:49.203Z,0.00
2019-04-06T03:17:49.200Z,0.00
2019-04-06T03:18:49.183Z,0.00
2019-04-06T03:19:49.199Z,0.00
2019-04-06T03:20:49.175Z,0.00
2019-04-06T03:21:49.147Z,0.00
2019-04-06T03:22:49.141Z,0.00
2019-04-06T03:23:51.984Z,0.00
2019-04-06T03:24:49.171Z,0.00
2019-04-06T03:25:49.105Z,0.00
2019-04-06T03:27:01.045Z,0.00
2019-04-06T03:27:50.085Z,0.00
2019-04-06T03:28:49.083Z,0.00
2019-04-06T03:29:57.296Z,0.00
2019-04-06T03:30:50.225Z,0.00
2019-04-06T03:31:49.200Z,0.00
2019-04-06T03:32:49.091Z,0.00
2019-04-06T03:33:49.062Z,0.00
2019-04-06T03:34:49.009Z,0.00
2019-04-06T03:35:50.473Z,0.00
2019-04-06T03:36:48.986Z,0.00
2019-04-06T03:37:48.977Z,0.00
2019-04-06T03:38:48.972Z,0.00
2019-04-06T03:39:48.955Z,0.00
2019-04-06T03:40:48.944Z,0.00
2019-04-06T03:41:48.945Z,0.00
2019-04-06T03:42:48.929Z,0.00
2019-04-06T03:43:48.916Z,0.00
2019-04-06T03:44:48.921Z,0.00
2019-04-06T03:45:48.890Z,0.00
2019-04-06T03:46:49.081Z,0.00
2019-04-06T03:47:48.867Z,0.00
2019-04-06T03:48:48.848Z,0.00
2019-04-06T03:49:48.836Z,0.00
2019-04-06T03:50:48.863Z,0.00
2019-04-06T03:51:48.815Z,0.00
2019-04-06T03:52:48.804Z,0.00
2019-04-06T03:53:48.815Z,0.00
2019-04-06T03:54:48.782Z,0.00
2019-04-06T03:55:48.772Z,0.00
2019-04-06T03:56:48.761Z,0.00
2019-04-06T03:57:48.751Z,0.00
2019-04-06T03:58:51.897Z,0.00
2019-04-06T03:59:48.749Z,0.00
2019-04-06T04:00:48.719Z,0.00
2019-04-06T04:01:48.751Z,0.00
2019-04-06T04:02:48.698Z,0.00
2019-04-06T04:03:48.687Z,0.00
2019-04-06T04:04:48.677Z,0.00
2019-04-06T04:05:48.679Z,0.00
2019-04-06T04:06:48.658Z,0.00
2019-04-06T04:07:48.708Z,0.00
2019-04-06T04:08:48.634Z,0.00
2019-04-06T04:09:48.623Z,0.00
2019-04-06T04:10:48.612Z,0.00
2019-04-06T04:11:48.618Z,0.00
2019-04-06T04:12:48.589Z,0.00
2019-04-06T04:13:48.848Z,0.00
2019-04-06T04:14:48.570Z,0.00
2019-04-06T04:15:48.817Z,0.00
2019-04-06T04:16:48.549Z,0.00
2019-04-06T04:17:48.553Z,0.00
2019-04-06T04:18:48.560Z,0.00
2019-04-06T04:19:48.542Z,0.00
2019-04-06T04:20:48.509Z,0.00
2019-04-06T04:21:48.497Z,0.00
2019-04-06T04:22:48.685Z,0.00
2019-04-06T04:23:48.565Z,0.00
2019-04-06T04:24:48.463Z,0.00
2019-04-06T04:25:48.453Z,0.00
2019-04-06T04:26:48.641Z,0.00
2019-04-06T04:27:48.505Z,0.00
2019-04-06T04:28:48.422Z,0.00
2019-04-06T04:29:48.420Z,0.00
2019-04-06T04:30:48.453Z,0.00
2019-04-06T04:31:48.389Z,0.00
2019-04-06T04:32:48.378Z,0.00
2019-04-06T04:33:48.366Z,0.00
2019-04-06T04:34:48.358Z,0.00
2019-04-06T04:35:48.358Z,0.00
2019-04-06T04:36:48.335Z,0.00
2019-04-06T04:37:48.553Z,4.00
2019-04-06T04:38:48.318Z,0.00
2019-04-06T04:39:48.304Z,4.00
2019-04-06T04:40:48.293Z,0.00
2019-04-06T04:41:48.406Z,4.00
2019-04-06T04:42:48.276Z,4.00
2019-04-06T04:43:48.261Z,4.00
2019-04-06T04:44:48.377Z,8.00
2019-04-06T04:45:48.258Z,8.00
2019-04-06T04:46:48.246Z,8.00
2019-04-06T04:47:50.177Z,8.00
2019-04-06T04:48:48.284Z,4.00
2019-04-06T04:49:48.197Z,8.00
2019-04-06T04:50:48.187Z,8.00
2019-04-06T04:51:48.176Z,12.00
2019-04-06T04:52:48.165Z,12.00
2019-04-06T04:53:48.419Z,8.00
2019-04-06T04:54:48.148Z,16.00
2019-04-06T04:55:48.139Z,16.00
2019-04-06T04:56:48.125Z,16.00
2019-04-06T04:57:48.168Z,20.00
2019-04-06T04:58:48.101Z,20.00
2019-04-06T04:59:48.102Z,24.00
2019-04-06T05:00:48.083Z,24.00
2019-04-06T05:01:48.212Z,28.00
2019-04-06T05:02:48.060Z,28.00
2019-04-06T05:03:48.048Z,32.00
2019-04-06T05:04:48.037Z,36.00
2019-04-06T05:05:48.037Z,32.00
2019-04-06T05:06:48.015Z,36.00
2019-04-06T05:07:48.004Z,40.00
2019-04-06T05:08:47.993Z,44.00
2019-04-06T05:09:47.983Z,52.00
2019-04-06T05:10:47.972Z,56.00
2019-04-06T05:11:49.093Z,68.00
2019-04-06T05:12:47.951Z,68.00
2019-04-06T05:13:47.940Z,80.00
2019-04-06T05:14:47.930Z,80.00
2019-04-06T05:15:47.979Z,88.00
2019-04-06T05:16:47.908Z,112.00
2019-04-06T05:17:47.918Z,144.00
2019-04-06T05:18:47.888Z,168.00
2019-04-06T05:19:47.883Z,188.00
2019-04-06T05:20:47.987Z,204.00
2019-04-06T05:21:47.856Z,236.00
2019-04-06T05:22:47.846Z,244.00
2019-04-06T05:23:47.844Z,308.00
2019-04-06T05:24:47.824Z,344.00
2019-04-06T05:25:47.816Z,380.00
2019-04-06T05:26:47.803Z,412.00
2019-04-06T05:27:52.601Z,444.00
2019-04-06T05:28:48.790Z,488.00
2019-04-06T05:29:47.770Z,528.00
2019-04-06T05:30:47.759Z,572.00
2019-04-06T05:31:47.749Z,596.00
2019-04-06T05:32:47.739Z,628.00
2019-04-06T05:33:47.740Z,676.00
2019-04-06T05:34:47.727Z,728.00
2019-04-06T05:35:47.706Z,768.00
2019-04-06T05:36:47.699Z,820.00
2019-04-06T05:37:47.685Z,880.00
2019-04-06T05:38:47.677Z,964.00
2019-04-06T05:39:47.675Z,1060.00
2019-04-06T05:40:47.661Z,1120.00
2019-04-06T05:41:47.643Z,1176.00
2019-04-06T05:42:47.631Z,1248.00
2019-04-06T05:43:47.619Z,1296.00
2019-04-06T05:44:47.609Z,1328.00
2019-04-06T05:45:47.598Z,1368.00
2019-04-06T05:46:47.644Z,1396.00
2019-04-06T05:47:47.730Z,1448.00
2019-04-06T05:48:47.566Z,1532.00
2019-04-06T05:49:47.555Z,1636.00
2019-04-06T05:50:47.545Z,1648.00
2019-04-06T05:51:47.533Z,1664.00
2019-04-06T05:52:47.534Z,1652.00
2019-04-06T05:53:47.560Z,1720.00
2019-04-06T05:54:47.632Z,1856.00
2019-04-06T05:55:47.489Z,1976.00
2019-04-06T05:56:47.479Z,2084.00
2019-04-06T05:57:47.485Z,2152.00
2019-04-06T05:58:47.598Z,2256.00
2019-04-06T05:59:47.445Z,2732.00
2019-04-06T06:00:47.435Z,2828.00
2019-04-06T06:01:48.903Z,3064.00
2019-04-06T06:02:47.414Z,3176.00
2019-04-06T06:03:47.408Z,3316.00
2019-04-06T06:04:47.403Z,3376.00
2019-04-06T06:05:47.379Z,3240.00
2019-04-06T06:06:47.368Z,3288.00
2019-04-06T06:07:47.363Z,3052.00
2019-04-06T06:08:47.347Z,3184.00
2019-04-06T06:09:47.339Z,3172.00
2019-04-06T06:10:47.440Z,3212.00
2019-04-06T06:11:47.315Z,3436.00
2019-04-06T06:12:47.303Z,3672.00
2019-04-06T06:13:47.293Z,3892.00
2019-04-06T06:14:47.382Z,4068.00
2019-04-06T06:15:47.368Z,4164.00
2019-04-06T06:16:47.269Z,4272.00
2019-04-06T06:17:47.251Z,4316.00
2019-04-06T06:18:47.243Z,4244.00
2019-04-06T06:19:47.284Z,4176.00
2019-04-06T06:20:48.355Z,4192.00
2019-04-06T06:21:47.207Z,4152.00
2019-04-06T06:22:47.207Z,4308.00
2019-04-06T06:23:47.188Z,4360.00
2019-04-06T06:24:47.178Z,4440.00
2019-04-06T06:25:47.166Z,4560.00
2019-04-06T06:26:47.155Z,4508.00
2019-04-06T06:27:47.143Z,4504.00
2019-04-06T06:28:47.160Z,4548.00
2019-04-06T06:29:47.121Z,4508.00
2019-04-06T06:30:47.110Z,4348.00
2019-04-06T06:31:47.101Z,4276.00
2019-04-06T06:32:47.089Z,4008.00
2019-04-06T06:33:47.078Z,3740.00
2019-04-06T06:34:47.191Z,3452.00
2019-04-06T06:35:47.056Z,3464.00
2019-04-06T06:36:47.046Z,3676.00
2019-04-06T06:37:47.246Z,3952.00
2019-04-06T06:38:47.026Z,4144.00
2019-04-06T06:39:47.012Z,4220.00
2019-04-06T06:40:47.020Z,4560.00
2019-04-06T06:41:46.990Z,4780.00
2019-04-06T06:42:46.992Z,5232.00
2019-04-06T06:43:46.969Z,5548.00
2019-04-06T06:44:46.958Z,5552.00
2019-04-06T06:45:46.948Z,5192.00
2019-04-06T06:46:46.953Z,4560.00
2019-04-06T06:47:46.925Z,4452.00
2019-04-06T06:48:46.914Z,3448.00
2019-04-06T06:49:46.904Z,3644.00
2019-04-06T06:50:46.895Z,3316.00
2019-04-06T06:51:47.066Z,3424.00
2019-04-06T06:52:46.882Z,3280.00
2019-04-06T06:53:46.861Z,3748.00
2019-04-06T06:54:46.851Z,3780.00
2019-04-06T06:55:46.864Z,3212.00
2019-04-06T06:56:46.828Z,3652.00
2019-04-06T06:57:46.925Z,3104.00
2019-04-06T06:58:46.829Z,3268.00
2019-04-06T06:59:46.796Z,3372.00
2019-04-06T07:00:46.786Z,3216.00
2019-04-06T07:01:46.778Z,2976.00
2019-04-06T07:02:46.766Z,3120.00
2019-04-06T07:03:46.754Z,3272.00
2019-04-06T07:04:46.756Z,3024.00
2019-04-06T07:05:46.732Z,3052.00
2019-04-06T07:06:46.720Z,3092.00
2019-04-06T07:07:46.709Z,3072.00
2019-04-06T07:08:46.924Z,3164.00
2019-04-06T07:09:46.701Z,3296.00
2019-04-06T07:10:46.691Z,2996.00
2019-04-06T07:11:46.665Z,3520.00
2019-04-06T07:12:46.849Z,3776.00
2019-04-06T07:13:46.824Z,4844.00
2019-04-06T07:14:46.632Z,4224.00
2019-04-06T07:15:46.624Z,4328.00
2019-04-06T07:16:46.628Z,3980.00
2019-04-06T07:17:46.600Z,4072.00
2019-04-06T07:18:46.588Z,3440.00
2019-04-06T07:19:46.583Z,3776.00
2019-04-06T07:20:46.566Z,3420.00
2019-04-06T07:21:46.593Z,2908.00
2019-04-06T07:22:46.636Z,2844.00
2019-04-06T07:23:46.534Z,2868.00
2019-04-06T07:24:46.523Z,2692.00
2019-04-06T07:25:56.661Z,2600.00
2019-04-06T07:26:47.768Z,2420.00
2019-04-06T07:27:46.492Z,2252.00
2019-04-06T07:28:46.489Z,1996.00
2019-04-06T07:29:46.683Z,1956.00
2019-04-06T07:30:46.708Z,2016.00
2019-04-06T07:31:46.447Z,2004.00
2019-04-06T07:32:46.435Z,1956.00
2019-04-06T07:33:46.519Z,1932.00
2019-04-06T07:34:46.423Z,2040.00
2019-04-06T07:35:46.404Z,2084.00
2019-04-06T07:36:46.398Z,2232.00
2019-04-06T07:37:46.572Z,2392.00
2019-04-06T07:38:46.374Z,2544.00
2019-04-06T07:39:46.357Z,2680.00
2019-04-06T07:40:46.356Z,2940.00
2019-04-06T07:41:46.337Z,2944.00
2019-04-06T07:42:46.329Z,2912.00
2019-04-06T07:43:46.313Z,2860.00
2019-04-06T07:44:46.302Z,2904.00
2019-04-06T07:45:46.306Z,2968.00
2019-04-06T07:46:46.301Z,2812.00
2019-04-06T07:47:46.269Z,2856.00
2019-04-06T07:48:46.448Z,2752.00
2019-04-06T07:49:46.745Z,2684.00
2019-04-06T07:50:46.236Z,2416.00
2019-04-06T07:51:46.226Z,2528.00
2019-04-06T07:52:46.384Z,2480.00
2019-04-06T07:53:46.205Z,2428.00
2019-04-06T07:54:46.196Z,2388.00
2019-04-06T07:55:46.183Z,2168.00
2019-04-06T07:56:46.173Z,2308.00
2019-04-06T07:57:46.162Z,2296.00
2019-04-06T07:58:49.645Z,2092.00
2019-04-06T07:59:46.141Z,2088.00
2019-04-06T08:00:46.132Z,2072.00
2019-04-06T08:01:48.292Z,2124.00
2019-04-06T08:02:46.107Z,2316.00
2019-04-06T08:03:46.098Z,2216.00
2019-04-06T08:04:46.098Z,2088.00
2019-04-06T08:05:46.076Z,1988.00
2019-04-06T08:06:46.065Z,2036.00
2019-04-06T08:07:46.059Z,2040.00
2019-04-06T08:08:46.050Z,1996.00
2019-04-06T08:09:46.034Z,1800.00
2019-04-06T08:10:46.032Z,1724.00
2019-04-06T08:11:46.012Z,1756.00
2019-04-06T08:12:46.009Z,1880.00
2019-04-06T08:13:46.016Z,1896.00
2019-04-06T08:14:45.979Z,1992.00
2019-04-06T08:15:45.969Z,2048.00
2019-04-06T08:16:45.968Z,2020.00
2019-04-06T08:17:45.947Z,1932.00
2019-04-06T08:18:46.028Z,1944.00
2019-04-06T08:19:45.924Z,1888.00
2019-04-06T08:20:46.037Z,1896.00
2019-04-06T08:21:45.903Z,1948.00
2019-04-06T08:22:45.904Z,1956.00
2019-04-06T08:23:45.881Z,2004.00
2019-04-06T08:24:45.870Z,2280.00
2019-04-06T08:25:45.861Z,2364.00
2019-04-06T08:26:46.270Z,2312.00
2019-04-06T08:27:45.837Z,2324.00
2019-04-06T08:28:45.838Z,2368.00
2019-04-06T08:29:45.831Z,2396.00
2019-04-06T08:30:46.851Z,2168.00
2019-04-06T08:31:45.794Z,2000.00
2019-04-06T08:32:45.784Z,1976.00
2019-04-06T08:33:45.774Z,2108.00
2019-04-06T08:34:45.774Z,2272.00
2019-04-06T08:35:45.926Z,2340.00
2019-04-06T08:36:45.761Z,2352.00
2019-04-06T08:37:45.730Z,2332.00
2019-04-06T08:38:45.923Z,2524.00
2019-04-06T08:39:45.727Z,2572.00
2019-04-06T08:40:45.713Z,2756.00
2019-04-06T08:41:45.688Z,2488.00
2019-04-06T08:42:45.678Z,2432.00
2019-04-06T08:43:45.787Z,2796.00
2019-04-06T08:44:45.670Z,2948.00
2019-04-06T08:45:45.645Z,2824.00
2019-04-06T08:46:45.655Z,2780.00
2019-04-06T08:47:45.623Z,2936.00
2019-04-06T08:48:45.613Z,2884.00
2019-04-06T08:49:45.602Z,2856.00
2019-04-06T08:50:45.716Z,2800.00
2019-04-06T08:51:45.581Z,3092.00
2019-04-06T08:52:45.593Z,3196.00
2019-04-06T08:53:45.602Z,3228.00
2019-04-06T08:54:45.548Z,3264.00
2019-04-06T08:55:45.653Z,3336.00
2019-04-06T08:56:45.527Z,3404.00
2019-04-06T08:57:45.519Z,3432.00
2019-04-06T08:58:45.718Z,3628.00
2019-04-06T08:59:45.494Z,3704.00
2019-04-06T09:00:45.530Z,3940.00
2019-04-06T09:01:45.527Z,3752.00
2019-04-06T09:02:45.461Z,3656.00
2019-04-06T09:03:45.714Z,3788.00
2019-04-06T09:04:45.454Z,4064.00
2019-04-06T09:05:45.580Z,4260.00
2019-04-06T09:06:45.419Z,4328.00
2019-04-06T09:07:45.526Z,4440.00
2019-04-06T09:08:45.406Z,4820.00
2019-04-06T09:09:45.387Z,5180.00
2019-04-06T09:10:45.398Z,4936.00
2019-04-06T09:11:45.365Z,4844.00
2019-04-06T09:12:45.357Z,4860.00
2019-04-06T09:13:45.342Z,5252.00
2019-04-06T09:14:45.347Z,5168.00
2019-04-06T09:15:45.321Z,5128.00
2019-04-06T09:16:45.458Z,5056.00
2019-04-06T09:17:45.298Z,5588.00
2019-04-06T09:18:45.295Z,5820.00
2019-04-06T09:19:45.395Z,5808.00
2019-04-06T09:20:45.271Z,5852.00
2019-04-06T09:21:45.634Z,5792.00
2019-04-06T09:22:45.265Z,6188.00
2019-04-06T09:23:45.233Z,6364.00
2019-04-06T09:24:45.230Z,6052.00
2019-04-06T09:25:45.240Z,6368.00
2019-04-06T09:26:47.992Z,5492.00
2019-04-06T09:27:45.339Z,5716.00
2019-04-06T09:28:45.193Z,5756.00
2019-04-06T09:29:45.327Z,6528.00
2019-04-06T09:30:45.173Z,7452.00
2019-04-06T09:31:45.159Z,7404.00
2019-04-06T09:32:45.138Z,8188.00
2019-04-06T09:33:45.127Z,9264.00
2019-04-06T09:34:45.135Z,8836.00
2019-04-06T09:35:45.104Z,7456.00
2019-04-06T09:36:45.094Z,7836.00
2019-04-06T09:37:45.083Z,8992.00
2019-04-06T09:38:45.198Z,7956.00
2019-04-06T09:39:45.061Z,7900.00
2019-04-06T09:40:45.061Z,9680.00
2019-04-06T09:41:45.040Z,10848.00
2019-04-06T09:42:45.196Z,9864.00
2019-04-06T09:43:45.020Z,9452.00
2019-04-06T09:44:45.007Z,8892.00
2019-04-06T09:45:44.999Z,8000.00
2019-04-06T09:46:44.996Z,8276.00
2019-04-06T09:47:45.006Z,8188.00
2019-04-06T09:48:44.964Z,8096.00
2019-04-06T09:49:44.954Z,8340.00
2019-04-06T09:50:44.943Z,8464.00
2019-04-06T09:51:44.932Z,9284.00
2019-04-06T09:52:44.932Z,9488.00
2019-04-06T09:53:44.912Z,9220.00
2019-04-06T09:54:44.899Z,9520.00
2019-04-06T09:55:44.891Z,10976.00
2019-04-06T09:56:44.880Z,10816.00
2019-04-06T09:57:44.874Z,10536.00
2019-04-06T09:58:44.865Z,10000.00
2019-04-06T09:59:44.845Z,9284.00
2019-04-06T10:00:44.834Z,9060.00
2019-04-06T10:01:44.837Z,8960.00
2019-04-06T10:02:44.812Z,9580.00
2019-04-06T10:03:44.801Z,10104.00
2019-04-06T10:04:44.803Z,10536.00
2019-04-06T10:05:44.782Z,11012.00
2019-04-06T10:06:44.770Z,11028.00
2019-04-06T10:07:44.760Z,11512.00
2019-04-06T10:08:44.747Z,11716.00
2019-04-06T10:09:44.939Z,11684.00
2019-04-06T10:10:44.750Z,10372.00
2019-04-06T10:11:44.718Z,9448.00
2019-04-06T10:12:44.704Z,9316.00
2019-04-06T10:13:44.692Z,9100.00
2019-04-06T10:14:45.130Z,9288.00
2019-04-06T10:15:44.673Z,9448.00
2019-04-06T10:16:44.670Z,9276.00
2019-04-06T10:17:44.656Z,9268.00
2019-04-06T10:18:44.638Z,9344.00
2019-04-06T10:19:44.629Z,8668.00
2019-04-06T10:20:44.624Z,8668.00
2019-04-06T10:21:44.613Z,7048.00
2019-04-06T10:22:44.606Z,8276.00
2019-04-06T10:23:44.587Z,8488.00
2019-04-06T10:24:44.575Z,8228.00
2019-04-06T10:25:44.563Z,7348.00
2019-04-06T10:26:44.700Z,6776.00
2019-04-06T10:27:44.687Z,6864.00
2019-04-06T10:28:44.544Z,6916.00
2019-04-06T10:29:49.517Z,6444.00
2019-04-06T10:30:45.506Z,6572.00
2019-04-06T10:31:44.497Z,6088.00
2019-04-06T10:32:44.486Z,6004.00
2019-04-06T10:33:44.474Z,6196.00
2019-04-06T10:34:44.495Z,6028.00
2019-04-06T10:35:44.751Z,6212.00
2019-04-06T10:36:44.452Z,7148.00
2019-04-06T10:37:44.431Z,7096.00
2019-04-06T10:38:44.423Z,7448.00
2019-04-06T10:39:44.696Z,7604.00
2019-04-06T10:40:44.420Z,7748.00
2019-04-06T10:41:44.393Z,7656.00
2019-04-06T10:42:44.377Z,7636.00
2019-04-06T10:43:44.628Z,7468.00
2019-04-06T10:44:44.356Z,7436.00
2019-04-06T10:45:44.346Z,7404.00
2019-04-06T10:46:44.345Z,7268.00
2019-04-06T10:47:44.324Z,7184.00
2019-04-06T10:48:44.314Z,7392.00
2019-04-06T10:49:44.303Z,7272.00
2019-04-06T10:50:44.299Z,7144.00
2019-04-06T10:51:44.281Z,7324.00
2019-04-06T10:52:44.489Z,7088.00
2019-04-06T10:53:44.262Z,6516.00
2019-04-06T10:54:44.265Z,6420.00
2019-04-06T10:55:44.249Z,6456.00
2019-04-06T10:56:44.229Z,6520.00
2019-04-06T10:57:44.575Z,6612.00
2019-04-06T10:58:44.218Z,6756.00
2019-04-06T10:59:44.196Z,6588.00
2019-04-06T11:00:44.449Z,6268.00
2019-04-06T11:01:44.176Z,6492.00
2019-04-06T11:02:44.164Z,6440.00
2019-04-06T11:03:44.235Z,6868.00
2019-04-06T11:04:44.163Z,6436.00
2019-04-06T11:05:44.131Z,5988.00
2019-04-06T11:06:44.121Z,5820.00
2019-04-06T11:07:44.111Z,5956.00
2019-04-06T11:08:44.257Z,6516.00
2019-04-06T11:09:44.089Z,6848.00
2019-04-06T11:10:44.095Z,7392.00
2019-04-06T11:11:44.067Z,6876.00
2019-04-06T11:12:44.056Z,6712.00
2019-04-06T11:13:44.154Z,6468.00
2019-04-06T11:14:44.034Z,6092.00
2019-04-06T11:15:44.258Z,5948.00
2019-04-06T11:16:44.029Z,5716.00
2019-04-06T11:17:44.217Z,5792.00
2019-04-06T11:18:43.998Z,5588.00
2019-04-06T11:19:43.981Z,5448.00
2019-04-06T11:20:43.991Z,5492.00
2019-04-06T11:21:43.961Z,5848.00
2019-04-06T11:22:43.958Z,6068.00
2019-04-06T11:23:43.937Z,5824.00
2019-04-06T11:24:43.936Z,5476.00
2019-04-06T11:25:43.916Z,5580.00
2019-04-06T11:26:43.906Z,6084.00
2019-04-06T11:27:43.905Z,6068.00
2019-04-06T11:28:44.094Z,6552.00
2019-04-06T11:29:43.874Z,6348.00
2019-04-06T11:30:44.118Z,6412.00
2019-04-06T11:31:43.850Z,6308.00
2019-04-06T11:32:43.839Z,6184.00
2019-04-06T11:33:43.829Z,6728.00
2019-04-06T11:34:43.828Z,7568.00
2019-04-06T11:35:43.811Z,7532.00
2019-04-06T11:36:44.078Z,7836.00
2019-04-06T11:37:43.787Z,7916.00
2019-04-06T11:38:43.779Z,7296.00
2019-04-06T11:39:43.812Z,6712.00
2019-04-06T11:40:43.973Z,6688.00
2019-04-06T11:41:43.762Z,7224.00
2019-04-06T11:42:43.800Z,7816.00
2019-04-06T11:43:43.754Z,8480.00
2019-04-06T11:44:43.716Z,7816.00
2019-04-06T11:45:43.701Z,7228.00
2019-04-06T11:46:43.702Z,6540.00
2019-04-06T11:47:43.678Z,7048.00
2019-04-06T11:48:45.289Z,6736.00
2019-04-06T11:49:43.656Z,7108.00
2019-04-06T11:50:43.648Z,7444.00
2019-04-06T11:51:43.633Z,6296.00
2019-04-06T11:52:43.656Z,5452.00
2019-04-06T11:53:43.617Z,5412.00
2019-04-06T11:54:43.602Z,5624.00
2019-04-06T11:55:44.861Z,5504.00
2019-04-06T11:56:43.727Z,5476.00
2019-04-06T11:57:43.852Z,5804.00
2019-04-06T11:58:43.568Z,6280.00
2019-04-06T11:59:43.617Z,6532.00
2019-04-06T12:00:43.540Z,6176.00
2019-04-06T12:01:43.815Z,5984.00
2019-04-06T12:02:43.518Z,5744.00
2019-04-06T12:03:43.505Z,5784.00
2019-04-06T12:04:43.626Z,5488.00
2019-04-06T12:05:43.495Z,5264.00
2019-04-06T12:06:43.473Z,4980.00
2019-04-06T12:07:43.463Z,5024.00
2019-04-06T12:08:43.449Z,4892.00
2019-04-06T12:09:43.440Z,4884.00
2019-04-06T12:10:43.438Z,4920.00
2019-04-06T12:11:43.417Z,4984.00
2019-04-06T12:12:43.415Z,5240.00
2019-04-06T12:13:43.397Z,5144.00
2019-04-06T12:14:43.385Z,5392.00
2019-04-06T12:15:43.542Z,5688.00
2019-04-06T12:16:43.432Z,5444.00
2019-04-06T12:17:43.354Z,5444.00
2019-04-06T12:18:43.350Z,5352.00
2019-04-06T12:19:43.341Z,5648.00
2019-04-06T12:20:43.324Z,5024.00
2019-04-06T12:21:43.309Z,4728.00
2019-04-06T12:22:43.390Z,4748.00
2019-04-06T12:23:43.288Z,4644.00
2019-04-06T12:24:43.677Z,4984.00
2019-04-06T12:25:43.520Z,5384.00
2019-04-06T12:26:43.258Z,5656.00
2019-04-06T12:27:43.255Z,5852.00
2019-04-06T12:28:43.247Z,6304.00
2019-04-06T12:29:43.224Z,6540.00
2019-04-06T12:30:43.467Z,6752.00
2019-04-06T12:31:43.329Z,6224.00
2019-04-06T12:32:43.264Z,6804.00
2019-04-06T12:33:43.394Z,6944.00
2019-04-06T12:34:43.182Z,7144.00